createdAt,value
2018-07-13T00:02:04.864Z,102129.27
2018-07-13T00:04:34.032Z,102140.07
2018-07-13T00:07:03.140Z,102135.53
2018-07-13T00:09:32.228Z,102136.88
2018-07-13T00:12:01.326Z,102135.14
2018-07-13T00:14:30.416Z,102138.34
2018-07-13T00:16:59.680Z,102136.02
2018-07-13T00:19:28.836Z,102143.73
2018-07-13T00:21:57.906Z,102130.67
2018-07-13T00:24:27.014Z,102131.58
2018-07-13T00:26:56.108Z,102127.52
2018-07-13T00:29:25.313Z,102132.52
2018-07-13T00:31:54.628Z,102133.00
2018-07-13T00:34:23.725Z,102134.73
2018-07-13T00:36:52.912Z,102134.73
2018-07-13T00:39:21.991Z,102139.69
2018-07-13T00:41:51.120Z,102133.38
2018-07-13T00:44:20.241Z,102136.56
2018-07-13T00:46:49.380Z,102137.44
2018-07-13T00:49:18.480Z,102132.52
2018-07-13T00:51:47.573Z,102137.44
2018-07-13T00:54:16.680Z,102132.13
2018-07-13T00:56:45.790Z,102132.52
2018-07-13T00:59:14.872Z,102141.10
2018-07-13T01:01:44.056Z,102133.48
2018-07-13T01:04:13.158Z,102133.48
2018-07-13T01:06:42.250Z,102138.02
2018-07-13T01:09:11.338Z,102136.67
2018-07-13T01:11:40.440Z,102137.11
2018-07-13T01:14:15.202Z,102139.37
2018-07-13T01:16:44.292Z,102138.47
2018-07-13T01:19:13.662Z,102135.77
2018-07-13T01:21:42.871Z,102134.03
2018-07-13T01:24:11.961Z,102131.33
2018-07-13T01:26:41.084Z,102137.59
2018-07-13T01:29:10.257Z,102133.65
2018-07-13T01:31:39.344Z,102130.94
2018-07-13T01:34:08.453Z,102130.84
2018-07-13T01:36:37.652Z,102129.98
2018-07-13T01:39:09.476Z,102129.17
2018-07-13T01:41:38.560Z,102128.24
2018-07-13T01:44:07.648Z,102129.59
2018-07-13T01:46:36.712Z,102138.56
2018-07-13T01:49:05.907Z,102132.74
2018-07-13T01:51:35.118Z,102135.93
2018-07-13T01:54:04.278Z,102136.41
2018-07-13T01:56:33.378Z,102138.15
2018-07-13T01:59:02.468Z,102141.34
2018-07-13T02:01:31.588Z,102137.28
2018-07-13T02:04:00.696Z,102131.87
2018-07-13T02:06:29.860Z,102131.87
2018-07-13T02:08:58.955Z,102122.52
2018-07-13T02:11:28.056Z,102131.02
2018-07-13T02:13:57.144Z,102120.20
2018-07-13T02:16:26.256Z,102120.69
2018-07-13T02:18:55.348Z,102114.00
2018-07-13T02:21:24.435Z,102115.66
2018-07-13T02:23:53.520Z,102114.80
2018-07-13T02:26:22.612Z,102108.53
2018-07-13T02:28:52.048Z,102107.17
2018-07-13T02:31:21.233Z,102104.05
2018-07-13T02:33:50.364Z,102100.00
2018-07-13T02:36:19.610Z,102103.19
2018-07-13T02:38:48.720Z,102102.70
2018-07-13T02:41:17.840Z,102103.25
2018-07-13T02:43:47.004Z,102108.59
2018-07-13T02:46:16.100Z,102115.34
2018-07-13T02:48:45.367Z,102114.96
2018-07-13T02:51:15.534Z,102116.31
2018-07-13T02:53:44.656Z,102117.67
2018-07-13T02:56:13.822Z,102119.02
2018-07-13T02:58:42.913Z,102126.22
2018-07-13T03:01:12.117Z,102125.77
2018-07-13T03:03:41.213Z,102127.12
2018-07-13T03:06:10.330Z,102125.84
2018-07-13T03:08:39.408Z,102129.51
2018-07-13T03:11:08.509Z,102132.98
2018-07-13T03:13:37.589Z,102135.68
2018-07-13T03:16:06.701Z,102132.98
2018-07-13T03:18:35.773Z,102131.72
2018-07-13T03:21:04.863Z,102132.11
2018-07-13T03:23:34.027Z,102143.78
2018-07-13T03:26:03.180Z,102146.97
2018-07-13T03:28:32.451Z,102152.86
2018-07-13T03:31:01.569Z,102151.50
2018-07-13T03:33:30.686Z,102159.13
2018-07-13T03:35:59.763Z,102157.39
2018-07-13T03:38:28.946Z,102157.88
2018-07-13T03:40:58.175Z,102160.96
2018-07-13T03:43:27.259Z,102161.83
2018-07-13T03:45:56.359Z,102163.28
2018-07-13T03:48:25.540Z,102164.21
2018-07-13T03:50:54.761Z,102162.37
2018-07-13T03:53:23.851Z,102160.58
2018-07-13T03:55:53.031Z,102163.28
2018-07-13T03:58:22.141Z,102156.97
2018-07-13T04:00:51.227Z,102158.33
2018-07-13T04:03:20.345Z,102160.58
2018-07-13T04:05:49.445Z,102157.94
2018-07-13T04:08:18.540Z,102156.52
2018-07-13T04:10:47.633Z,102156.52
2018-07-13T04:13:16.707Z,102153.41
2018-07-13T04:15:45.821Z,102153.82
2018-07-13T04:18:18.568Z,102151.19
2018-07-13T04:20:47.943Z,102151.57
2018-07-13T04:23:17.089Z,102152.54
2018-07-13T04:25:46.179Z,102152.92
2018-07-13T04:28:15.871Z,102153.41
2018-07-13T04:30:45.325Z,102152.54
2018-07-13T04:33:14.653Z,102146.65
2018-07-13T04:35:43.850Z,102145.30
2018-07-13T04:38:13.099Z,102141.66
2018-07-13T04:40:42.193Z,102144.27
2018-07-13T04:43:11.492Z,102141.50
2018-07-13T04:45:40.574Z,102141.98
2018-07-13T04:48:09.792Z,102136.97
2018-07-13T04:50:38.866Z,102134.26
2018-07-13T04:53:07.947Z,102139.59
2018-07-13T04:55:37.088Z,102140.08
2018-07-13T04:58:06.171Z,102138.80
2018-07-13T05:00:35.365Z,102143.72
2018-07-13T05:03:04.573Z,102147.70
2018-07-13T05:05:33.699Z,102146.73
2018-07-13T05:08:02.877Z,102144.45
2018-07-13T05:10:31.944Z,102144.45
2018-07-13T05:13:01.050Z,102150.17
2018-07-13T05:15:30.139Z,102148.83
2018-07-13T05:17:59.240Z,102142.63
2018-07-13T05:20:28.340Z,102152.95
2018-07-13T05:22:57.408Z,102157.87
2018-07-13T05:25:26.520Z,102153.33
2018-07-13T05:27:56.016Z,102158.34
2018-07-13T05:30:25.134Z,102154.84
2018-07-13T05:32:54.351Z,102157.97
2018-07-13T05:35:23.732Z,102157.16
2018-07-13T05:37:52.825Z,102161.60
2018-07-13T05:40:21.921Z,102151.83
2018-07-13T05:42:51.029Z,102162.56
2018-07-13T05:45:20.137Z,102161.77
2018-07-13T05:47:49.599Z,102165.33
2018-07-13T05:50:18.711Z,102165.40
2018-07-13T05:52:47.795Z,102163.18
2018-07-13T05:55:16.916Z,102169.00
2018-07-13T05:57:46.052Z,102168.52
2018-07-13T06:00:15.223Z,102171.70
2018-07-13T06:02:44.312Z,102168.58
2018-07-13T06:05:13.903Z,102173.44
2018-07-13T06:07:42.992Z,102164.47
2018-07-13T06:10:12.080Z,102170.80
2018-07-13T06:12:41.292Z,102173.92
2018-07-13T06:15:10.703Z,102169.00
2018-07-13T06:17:39.889Z,102171.22
2018-07-13T06:20:10.392Z,102169.00
2018-07-13T06:22:39.832Z,102172.16
2018-07-13T06:25:09.921Z,102173.12
2018-07-13T06:27:39.404Z,102175.27
2018-07-13T06:30:08.539Z,102177.55
2018-07-13T06:32:37.848Z,102171.28
2018-07-13T06:35:07.044Z,102173.50
2018-07-13T06:37:36.156Z,102174.79
2018-07-13T06:40:05.368Z,102176.95
2018-07-13T06:42:34.530Z,102174.73
2018-07-13T06:45:03.658Z,102179.16
2018-07-13T06:47:32.825Z,102174.73
2018-07-13T06:50:02.073Z,102184.08
2018-07-13T06:52:31.262Z,102172.41
2018-07-13T06:55:00.435Z,102175.98
2018-07-13T06:57:40.835Z,102179.00
2018-07-13T07:01:17.479Z,102177.10
2018-07-13T07:04:53.181Z,102190.06
2018-07-13T07:07:24.036Z,102180.61
2018-07-13T07:09:55.496Z,102192.22
2018-07-13T07:13:29.447Z,102185.78
2018-07-13T07:15:58.980Z,102187.45
2018-07-13T07:18:28.144Z,102184.27
2018-07-13T07:20:57.962Z,102190.54
2018-07-13T07:23:28.045Z,102190.86
2018-07-13T07:25:58.133Z,102194.61
2018-07-13T07:28:27.559Z,102196.12
2018-07-13T07:30:57.560Z,102199.97
2018-07-13T07:33:26.691Z,102195.75
2018-07-13T07:35:55.807Z,102191.95
2018-07-13T07:38:25.193Z,102186.85
2018-07-13T07:40:54.511Z,102194.41
2018-07-13T07:43:23.689Z,102190.73
2018-07-13T07:45:52.782Z,102190.57
2018-07-13T07:48:21.902Z,102189.63
2018-07-13T07:50:51.090Z,102184.54
2018-07-13T07:53:20.179Z,102188.91
2018-07-13T07:55:49.292Z,102192.41
2018-07-13T07:58:18.388Z,102192.80
2018-07-13T08:00:47.481Z,102193.67
2018-07-13T08:03:16.665Z,102193.08
2018-07-13T08:05:45.756Z,102187.92
2018-07-13T08:08:14.855Z,102182.64
2018-07-13T08:10:43.954Z,102182.29
2018-07-13T08:13:13.167Z,102180.55
2018-07-13T08:15:42.236Z,102181.34
2018-07-13T08:18:11.344Z,102184.34
2018-07-13T08:20:44.728Z,102186.20
2018-07-13T08:23:14.322Z,102184.53
2018-07-13T08:25:48.403Z,102182.97
2018-07-13T08:28:19.704Z,102189.68
2018-07-13T08:30:55.200Z,102188.70
2018-07-13T08:33:24.300Z,102189.45
2018-07-13T08:35:53.479Z,102198.03
2018-07-13T08:38:22.865Z,102185.41
2018-07-13T08:40:52.075Z,102183.75
2018-07-13T08:43:21.247Z,102181.03
2018-07-13T08:45:50.487Z,102182.84
2018-07-13T08:48:19.732Z,102179.45
2018-07-13T08:50:48.872Z,102177.30
2018-07-13T08:53:18.043Z,102179.49
2018-07-13T08:55:47.123Z,102170.88
2018-07-13T08:58:16.524Z,102178.75
2018-07-13T09:00:45.637Z,102176.11
2018-07-13T09:03:14.840Z,102182.81
2018-07-13T09:05:43.971Z,102179.69
2018-07-13T09:08:13.311Z,102180.48
2018-07-13T09:10:42.772Z,102175.48
2018-07-13T09:13:12.012Z,102171.64
2018-07-13T09:15:41.344Z,102179.83
2018-07-13T09:18:10.598Z,102179.63
2018-07-13T09:20:39.840Z,102183.20
2018-07-13T09:23:08.920Z,102173.42
2018-07-13T09:25:37.995Z,102172.67
2018-07-13T09:28:07.122Z,102165.44
2018-07-13T09:30:36.344Z,102179.55
2018-07-13T09:33:05.616Z,102181.59
2018-07-13T09:35:34.810Z,102181.88
2018-07-13T09:38:04.060Z,102179.94
2018-07-13T09:40:33.730Z,102192.42
2018-07-13T09:43:02.914Z,102189.41
2018-07-13T09:45:32.028Z,102187.08
2018-07-13T09:48:01.122Z,102193.42
2018-07-13T09:50:30.204Z,102196.78
2018-07-13T09:52:59.409Z,102198.00
2018-07-13T09:55:28.508Z,102194.24
2018-07-13T09:57:57.596Z,102200.04
2018-07-13T10:00:30.883Z,102196.28
2018-07-13T10:03:00.384Z,102192.23
2018-07-13T10:05:29.531Z,102184.48
2018-07-13T10:07:58.806Z,102191.48
2018-07-13T10:10:27.894Z,102193.81
2018-07-13T10:12:57.012Z,102186.98
2018-07-13T10:15:26.227Z,102194.80
2018-07-13T10:17:55.353Z,102188.83
2018-07-13T10:20:24.492Z,102188.66
2018-07-13T10:22:53.774Z,102194.55
2018-07-13T10:25:23.688Z,102190.55
2018-07-13T10:27:53.117Z,102190.06
2018-07-13T10:30:22.597Z,102182.88
2018-07-13T10:32:51.708Z,102186.26
2018-07-13T10:35:21.116Z,102184.11
2018-07-13T10:37:50.392Z,102190.88
2018-07-13T10:40:19.488Z,102184.59
2018-07-13T10:42:48.653Z,102185.08
2018-07-13T10:45:17.797Z,102182.44
2018-07-13T10:47:47.175Z,102178.38
2018-07-13T10:50:16.544Z,102179.25
2018-07-13T10:52:45.713Z,102177.90
2018-07-13T10:55:14.875Z,102175.61
2018-07-13T10:57:43.978Z,102176.72
2018-07-13T11:00:13.076Z,102181.34
2018-07-13T11:02:42.286Z,102170.62
2018-07-13T11:05:11.626Z,102166.44
2018-07-13T11:07:40.888Z,102171.95
2018-07-13T11:10:10.095Z,102175.77
2018-07-13T11:12:39.263Z,102166.30
2018-07-13T11:15:08.370Z,102163.12
2018-07-13T11:17:37.526Z,102167.91
2018-07-13T11:20:06.653Z,102163.94
2018-07-13T11:22:35.731Z,102160.05
2018-07-13T11:25:04.864Z,102153.56
2018-07-13T11:27:34.193Z,102154.81
2018-07-13T11:30:03.385Z,102156.14
2018-07-13T11:32:38.299Z,102153.61
2018-07-13T11:35:07.444Z,102149.31
2018-07-13T11:37:36.570Z,102149.86
2018-07-13T11:40:06.224Z,102151.53
2018-07-13T11:42:35.319Z,102144.69
2018-07-13T11:45:04.402Z,102150.11
2018-07-13T11:47:33.533Z,102151.29
2018-07-13T11:50:02.676Z,102149.59
2018-07-13T11:52:31.858Z,102144.36
2018-07-13T11:55:00.959Z,102151.57
2018-07-13T11:57:30.065Z,102135.83
2018-07-13T11:59:59.168Z,102143.88
2018-07-13T12:02:28.260Z,102142.34
2018-07-13T12:04:57.508Z,102135.34
2018-07-13T12:07:26.641Z,102135.16
2018-07-13T12:09:55.886Z,102132.39
2018-07-13T12:12:25.060Z,102132.84
2018-07-13T12:14:54.147Z,102126.25
2018-07-13T12:17:23.349Z,102126.66
2018-07-13T12:19:52.656Z,102133.84
2018-07-13T12:22:21.941Z,102122.27
2018-07-13T12:24:51.172Z,102127.27
2018-07-13T12:27:20.249Z,102121.54
2018-07-13T12:29:49.323Z,102117.00
2018-07-13T12:32:18.425Z,102117.00
2018-07-13T12:34:47.511Z,102113.91
2018-07-13T12:37:16.628Z,102116.46
2018-07-13T12:39:45.818Z,102114.33
2018-07-13T12:42:15.057Z,102121.57
2018-07-13T12:44:44.180Z,102126.31
2018-07-13T12:47:13.312Z,102117.88
2018-07-13T12:49:42.433Z,102118.11
2018-07-13T12:52:11.796Z,102117.67
2018-07-13T12:54:40.947Z,102124.80
2018-07-13T12:57:10.183Z,102124.73
2018-07-13T12:59:39.292Z,102124.89
2018-07-13T13:02:08.377Z,102127.27
2018-07-13T13:04:37.437Z,102130.28
2018-07-13T13:07:06.551Z,102125.45
2018-07-13T13:09:35.673Z,102128.24
2018-07-13T13:12:04.765Z,102124.32
2018-07-13T13:14:33.847Z,102126.48
2018-07-13T13:17:02.948Z,102125.45
2018-07-13T13:19:32.649Z,102115.92
2018-07-13T13:22:01.932Z,102121.30
2018-07-13T13:24:31.117Z,102119.40
2018-07-13T13:27:00.248Z,102114.53
2018-07-13T13:29:29.677Z,102117.10
2018-07-13T13:31:58.781Z,102114.47
2018-07-13T13:34:27.855Z,102120.81
2018-07-13T13:36:56.964Z,102118.07
2018-07-13T13:39:26.152Z,102115.61
2018-07-13T13:41:55.256Z,102125.98
2018-07-13T13:44:24.600Z,102136.62
2018-07-13T13:46:53.735Z,102126.78
2018-07-13T13:49:22.836Z,102120.91
2018-07-13T13:51:51.928Z,102121.16
2018-07-13T13:54:21.020Z,102126.94
2018-07-13T13:56:50.138Z,102124.56
2018-07-13T13:59:19.219Z,102130.23
2018-07-13T14:01:48.344Z,102119.55
2018-07-13T14:04:17.631Z,102118.70
2018-07-13T14:06:46.718Z,102128.70
2018-07-13T14:09:15.863Z,102123.16
2018-07-13T14:11:45.114Z,102132.91
2018-07-13T14:14:14.223Z,102119.39
2018-07-13T14:16:43.300Z,102123.27
2018-07-13T14:19:12.384Z,102128.44
2018-07-13T14:21:41.505Z,102129.13
2018-07-13T14:24:11.906Z,102126.88
2018-07-13T14:26:41.041Z,102116.67
2018-07-13T14:29:10.235Z,102119.61
2018-07-13T14:31:39.345Z,102120.30
2018-07-13T14:34:08.823Z,102116.09
2018-07-13T14:36:38.190Z,102115.25
2018-07-13T14:39:08.924Z,102114.47
2018-07-13T14:41:38.039Z,102119.50
2018-07-13T14:44:07.252Z,102109.05
2018-07-13T14:46:36.339Z,102108.98
2018-07-13T14:49:05.563Z,102120.27
2018-07-13T14:51:34.815Z,102112.86
2018-07-13T14:54:04.603Z,102114.41
2018-07-13T14:56:33.921Z,102106.52
2018-07-13T14:59:03.062Z,102109.53
2018-07-13T15:01:32.167Z,102114.08
2018-07-13T15:04:01.419Z,102108.59
2018-07-13T15:06:30.760Z,102111.60
2018-07-13T15:09:00.004Z,102113.83
2018-07-13T15:11:29.075Z,102116.42
2018-07-13T15:13:58.169Z,102106.00
2018-07-13T15:16:27.326Z,102116.27
2018-07-13T15:18:56.423Z,102102.28
2018-07-13T15:21:25.522Z,102100.17
2018-07-13T15:23:54.612Z,102106.95
2018-07-13T15:26:23.731Z,102102.44
2018-07-13T15:28:52.883Z,102094.69
2018-07-13T15:31:22.216Z,102091.98
2018-07-13T15:33:51.308Z,102088.97
2018-07-13T15:36:20.408Z,102085.09
2018-07-13T15:38:49.488Z,102092.66
2018-07-13T15:41:18.599Z,102084.23
2018-07-13T15:43:47.683Z,102092.80
2018-07-13T15:46:16.796Z,102090.02
2018-07-13T15:48:45.887Z,102088.78
2018-07-13T15:51:14.981Z,102091.30
2018-07-13T15:53:44.087Z,102088.89
2018-07-13T15:56:13.146Z,102093.41
2018-07-13T15:58:42.398Z,102087.25
2018-07-13T16:01:11.558Z,102091.60
2018-07-13T16:03:40.695Z,102093.52
2018-07-13T16:06:09.786Z,102089.95
2018-07-13T16:08:39.037Z,102094.08
2018-07-13T16:11:08.343Z,102095.44
2018-07-13T16:13:37.473Z,102083.92
2018-07-13T16:16:06.678Z,102090.02
2018-07-13T16:18:36.009Z,102087.39
2018-07-13T16:21:05.079Z,102088.06
2018-07-13T16:23:34.444Z,102085.42
2018-07-13T16:26:03.543Z,102085.35
2018-07-13T16:28:32.789Z,102082.57
2018-07-13T16:31:02.040Z,102082.95
2018-07-13T16:33:31.117Z,102071.74
2018-07-13T16:36:00.233Z,102066.63
2018-07-13T16:38:29.508Z,102072.42
2018-07-13T16:40:58.644Z,102077.16
2018-07-13T16:43:27.741Z,102067.68
2018-07-13T16:45:56.923Z,102064.67
2018-07-13T16:48:26.008Z,102070.65
2018-07-13T16:50:55.209Z,102071.25
2018-07-13T16:53:24.463Z,102061.86
2018-07-13T16:55:53.608Z,102062.83
2018-07-13T16:58:22.706Z,102065.16
2018-07-13T17:00:51.811Z,102065.39
2018-07-13T17:03:21.049Z,102067.42
2018-07-13T17:05:50.540Z,102064.83
2018-07-13T17:08:19.702Z,102060.84
2018-07-13T17:10:48.781Z,102059.11
2018-07-13T17:13:17.852Z,102053.77
2018-07-13T17:15:46.984Z,102053.28
2018-07-13T17:18:16.113Z,102060.16
2018-07-13T17:20:45.276Z,102054.91
2018-07-13T17:23:14.502Z,102059.94
2018-07-13T17:25:43.589Z,102054.59
2018-07-13T17:28:12.693Z,102055.31
2018-07-13T17:30:41.808Z,102058.02
2018-07-13T17:33:10.968Z,102054.14
2018-07-13T17:35:40.122Z,102057.41
2018-07-13T17:38:09.212Z,102055.50
2018-07-13T17:40:38.364Z,102060.31
2018-07-13T17:43:07.528Z,102056.85
2018-07-13T17:45:36.845Z,102064.56
2018-07-13T17:48:05.921Z,102060.42
2018-07-13T17:50:35.031Z,102067.68
2018-07-13T17:53:04.128Z,102071.45
2018-07-13T17:55:33.276Z,102069.16
2018-07-13T17:58:02.337Z,102075.99
2018-07-13T18:00:31.473Z,102071.06
2018-07-13T18:03:00.946Z,102065.95
2018-07-13T18:05:30.036Z,102059.48
2018-07-13T18:07:59.138Z,102065.16
2018-07-13T18:10:28.240Z,102062.57
2018-07-13T18:12:57.444Z,102057.23
2018-07-13T18:15:26.616Z,102058.20
2018-07-13T18:17:55.702Z,102060.20
2018-07-13T18:20:24.832Z,102063.87
2018-07-13T18:22:53.927Z,102068.02
2018-07-13T18:25:23.177Z,102072.64
2018-07-13T18:27:52.525Z,102068.45
2018-07-13T18:30:27.037Z,102075.60
2018-07-13T18:32:56.129Z,102067.59
2018-07-13T18:35:25.226Z,102078.49
2018-07-13T18:37:54.308Z,102073.23
2018-07-13T18:40:23.499Z,102070.14
2018-07-13T18:42:52.575Z,102071.19
2018-07-13T18:45:21.695Z,102079.38
2018-07-13T18:47:53.355Z,102082.72
2018-07-13T18:50:22.575Z,102086.78
2018-07-13T18:52:51.621Z,102083.21
2018-07-13T18:55:20.703Z,102076.45
2018-07-13T18:57:49.849Z,102076.14
2018-07-13T19:00:19.041Z,102078.95
2018-07-13T19:02:48.151Z,102075.76
2018-07-13T19:05:17.381Z,102085.41
2018-07-13T19:07:46.535Z,102081.34
2018-07-13T19:10:15.647Z,102084.05
2018-07-13T19:12:44.744Z,102085.97
2018-07-13T19:15:13.941Z,102082.84
2018-07-13T19:17:43.024Z,102083.44
2018-07-13T19:20:12.101Z,102084.80
2018-07-13T19:22:42.950Z,102087.19
2018-07-13T19:25:12.133Z,102087.64
2018-07-13T19:27:41.366Z,102091.70
2018-07-13T19:30:10.439Z,102085.05
2018-07-13T19:32:39.515Z,102082.03
2018-07-13T19:35:08.596Z,102089.73
2018-07-13T19:37:37.732Z,102088.55
2018-07-13T19:40:06.845Z,102088.94
2018-07-13T19:42:36.037Z,102093.41
2018-07-13T19:45:05.134Z,102097.05
2018-07-13T19:47:34.328Z,102100.91
2018-07-13T19:50:03.414Z,102099.55
2018-07-13T19:52:32.512Z,102099.14
2018-07-13T19:55:01.618Z,102106.88
2018-07-13T19:57:30.847Z,102113.56
2018-07-13T20:00:00.128Z,102111.90
2018-07-13T20:02:29.402Z,102102.98
2018-07-13T20:04:58.502Z,102110.69
2018-07-13T20:07:27.596Z,102106.18
2018-07-13T20:09:56.692Z,102109.52
2018-07-13T20:12:25.783Z,102111.83
2018-07-13T20:14:54.888Z,102119.95
2018-07-13T20:17:24.011Z,102115.34
2018-07-13T20:19:53.174Z,102111.42
2018-07-13T20:22:22.268Z,102118.67
2018-07-13T20:24:51.344Z,102119.33
2018-07-13T20:27:20.456Z,102116.13
2018-07-13T20:29:49.713Z,102116.93
2018-07-13T20:32:18.796Z,102113.33
2018-07-13T20:34:47.936Z,102120.02
2018-07-13T20:37:17.056Z,102115.58
2018-07-13T20:39:46.148Z,102119.63
2018-07-13T20:42:15.263Z,102126.84
2018-07-13T20:44:44.344Z,102125.11
2018-07-13T20:47:13.474Z,102129.09
2018-07-13T20:49:42.548Z,102133.05
2018-07-13T20:52:11.722Z,102130.04
2018-07-13T20:54:40.838Z,102131.87
2018-07-13T20:57:09.928Z,102133.61
2018-07-13T20:59:39.072Z,102135.55
2018-07-13T21:02:08.512Z,102137.45
2018-07-13T21:04:37.593Z,102131.95
2018-07-13T21:07:07.378Z,102138.33
2018-07-13T21:09:36.449Z,102139.29
2018-07-13T21:12:05.792Z,102145.56
2018-07-13T21:14:34.858Z,102141.09
2018-07-13T21:17:04.030Z,102141.20
2018-07-13T21:19:33.179Z,102140.72
2018-07-13T21:22:02.560Z,102147.09
2018-07-13T21:24:31.641Z,102142.62
2018-07-13T21:27:00.893Z,102143.11
2018-07-13T21:29:30.116Z,102143.41
2018-07-13T21:31:59.200Z,102145.25
2018-07-13T21:34:28.300Z,102146.67
2018-07-13T21:36:57.406Z,102137.63
2018-07-13T21:39:26.477Z,102139.91
2018-07-13T21:41:55.600Z,102136.34
2018-07-13T21:44:24.796Z,102149.38
2018-07-13T21:46:53.881Z,102149.38
2018-07-13T21:49:22.972Z,102147.16
2018-07-13T21:51:52.171Z,102146.19
2018-07-13T21:54:21.300Z,102143.48
2018-07-13T21:56:50.735Z,102144.84
2018-07-13T21:59:19.861Z,102142.13
2018-07-13T22:01:49.014Z,102141.75
2018-07-13T22:04:18.256Z,102139.43
2018-07-13T22:06:47.480Z,102138.01
2018-07-13T22:09:16.552Z,102140.33
2018-07-13T22:11:45.649Z,102135.30
2018-07-13T22:14:14.740Z,102132.22
2018-07-13T22:16:43.840Z,102139.84
2018-07-13T22:19:12.972Z,102142.30
2018-07-13T22:21:42.148Z,102144.39
2018-07-13T22:24:11.340Z,102144.39
2018-07-13T22:26:40.526Z,102140.78
2018-07-13T22:29:09.752Z,102144.84
2018-07-13T22:31:38.848Z,102145.73
2018-07-13T22:34:07.926Z,102146.19
2018-07-13T22:36:37.037Z,102151.15
2018-07-13T22:39:06.892Z,102159.26
2018-07-13T22:41:36.192Z,102158.84
2018-07-13T22:44:05.312Z,102153.54
2018-07-13T22:46:34.454Z,102156.69
2018-07-13T22:49:03.556Z,102154.89
2018-07-13T22:51:32.812Z,102157.49
2018-07-13T22:54:01.900Z,102158.46
2018-07-13T22:56:31.006Z,102160.75
2018-07-13T22:59:00.115Z,102168.09
2018-07-13T23:01:29.176Z,102158.63
2018-07-13T23:03:58.295Z,102171.66
2018-07-13T23:06:27.411Z,102167.61
2018-07-13T23:08:56.512Z,102169.45
2018-07-13T23:11:25.587Z,102166.33
2018-07-13T23:13:54.677Z,102169.45
2018-07-13T23:16:23.743Z,102169.90
2018-07-13T23:18:52.857Z,102168.96
2018-07-13T23:21:22.448Z,102169.90
2018-07-13T23:23:51.628Z,102167.67
2018-07-13T23:26:20.844Z,102165.84
2018-07-13T23:28:49.970Z,102163.72
2018-07-13T23:31:19.084Z,102168.16
2018-07-13T23:33:48.162Z,102165.08
2018-07-13T23:36:17.353Z,102164.27
2018-07-13T23:38:46.567Z,102170.94
2018-07-13T23:41:15.628Z,102166.02
2018-07-13T23:43:44.740Z,102168.71
2018-07-13T23:46:13.826Z,102167.84
2018-07-13T23:48:42.926Z,102163.38
2018-07-13T23:51:12.056Z,102161.09
2018-07-13T23:53:41.256Z,102153.46
2018-07-13T23:56:10.332Z,102150.75
2018-07-13T23:58:39.456Z,102155.68
